createdAt,value
2017-11-01T00:00:25.294Z,4.9
2017-11-01T00:01:28.008Z,4.9
2017-11-01T00:02:30.395Z,4.9
2017-11-01T00:03:32.761Z,4.9
2017-11-01T00:04:35.144Z,4.9
2017-11-01T00:05:37.535Z,4.9
2017-11-01T00:06:39.922Z,4.9
2017-11-01T00:07:42.286Z,4.9
2017-11-01T00:08:44.670Z,4.9
2017-11-01T00:09:47.046Z,5
2017-11-01T00:10:49.424Z,4.9
2017-11-01T00:11:51.786Z,4.9
2017-11-01T00:12:54.162Z,4.9
2017-11-01T00:13:56.908Z,4.9
2017-11-01T00:14:59.272Z,4.9
2017-11-01T00:16:01.654Z,4.9
2017-11-01T00:17:04.045Z,4.9
2017-11-01T00:18:06.451Z,4.8
2017-11-01T00:19:08.833Z,4.9
2017-11-01T00:20:11.564Z,4.9
2017-11-01T00:21:13.933Z,4.8
2017-11-01T00:22:16.320Z,4.9
2017-11-01T00:23:18.698Z,4.9
2017-11-01T00:24:21.087Z,4.9
2017-11-01T00:25:23.475Z,4.9
2017-11-01T00:26:25.856Z,4.9
2017-11-01T00:27:28.226Z,4.9
2017-11-01T00:28:30.610Z,4.9
2017-11-01T00:29:32.984Z,4.9
2017-11-01T00:30:36.141Z,4.9
2017-11-01T00:31:49.028Z,4.9
2017-11-01T00:32:59.541Z,4.9
2017-11-01T00:34:10.738Z,4.9
2017-11-01T00:35:39.268Z,4.8
2017-11-01T00:36:52.880Z,4.8
2017-11-01T00:38:00.003Z,4.9
2017-11-01T00:39:08.876Z,4.9
2017-11-01T00:40:21.127Z,4.9
2017-11-01T00:41:34.040Z,4.9
2017-11-01T00:42:43.530Z,4.9
2017-11-01T00:43:55.113Z,4.9
2017-11-01T00:45:14.230Z,4.8
2017-11-01T00:46:25.815Z,4.9
2017-11-01T00:47:34.904Z,4.9
2017-11-01T00:48:47.581Z,4.9
2017-11-01T00:50:06.706Z,4.9
2017-11-01T00:51:21.043Z,4.9
2017-11-01T00:52:35.078Z,4.9
2017-11-01T00:53:48.284Z,4.9
2017-11-01T00:55:00.926Z,4.9
2017-11-01T00:56:16.402Z,4.8
2017-11-01T00:57:38.374Z,4.9
2017-11-01T00:58:44.195Z,4.9
2017-11-01T00:59:58.527Z,4.9
2017-11-01T01:01:01.268Z,4.8
2017-11-01T01:02:03.651Z,4.8
2017-11-01T01:03:06.400Z,4.9
2017-11-01T01:04:08.774Z,4.8
2017-11-01T01:05:11.149Z,4.9
2017-11-01T01:06:13.534Z,4.9
2017-11-01T01:07:15.913Z,4.9
2017-11-01T01:08:18.284Z,4.9
2017-11-01T01:09:20.658Z,4.8
2017-11-01T01:10:23.025Z,4.8
2017-11-01T01:11:25.405Z,4.8
2017-11-01T01:12:27.777Z,4.8
2017-11-01T01:13:30.147Z,4.8
2017-11-01T01:14:32.534Z,4.9
2017-11-01T01:15:34.916Z,4.8
2017-11-01T01:16:37.297Z,4.9
2017-11-01T01:17:39.668Z,4.8
2017-11-01T01:18:42.048Z,4.8
2017-11-01T01:19:44.423Z,4.8
2017-11-01T01:20:47.147Z,4.9
2017-11-01T01:21:49.541Z,4.8
2017-11-01T01:22:51.921Z,4.8
2017-11-01T01:23:54.299Z,4.8
2017-11-01T01:24:56.678Z,4.8
2017-11-01T01:25:59.056Z,4.8
2017-11-01T01:27:01.437Z,4.8
2017-11-01T01:28:04.164Z,4.8
2017-11-01T01:29:06.567Z,4.8
2017-11-01T01:30:08.927Z,4.8
2017-11-01T01:31:11.307Z,4.8
2017-11-01T01:32:13.678Z,4.8
2017-11-01T01:33:16.063Z,4.8
2017-11-01T01:34:18.779Z,4.8
2017-11-01T01:35:21.152Z,4.8
2017-11-01T01:36:23.887Z,4.8
2017-11-01T01:37:26.293Z,4.8
2017-11-01T01:38:28.660Z,4.8
2017-11-01T01:39:31.034Z,4.8
2017-11-01T01:40:33.420Z,4.8
2017-11-01T01:41:36.139Z,4.8
2017-11-01T01:42:38.525Z,4.8
2017-11-01T01:43:40.915Z,4.8
2017-11-01T01:44:43.277Z,4.8
2017-11-01T01:45:45.662Z,4.8
2017-11-01T01:46:48.046Z,4.7
2017-11-01T01:47:51.145Z,4.8
2017-11-01T01:48:53.882Z,4.8
2017-11-01T01:49:56.272Z,4.8
2017-11-01T01:50:58.650Z,4.8
2017-11-01T01:52:01.034Z,4.8
2017-11-01T01:53:03.415Z,4.8
2017-11-01T01:54:05.837Z,4.8
2017-11-01T01:55:08.209Z,4.8
2017-11-01T01:56:10.594Z,4.7
2017-11-01T01:57:12.962Z,4.8
2017-11-01T01:58:15.333Z,4.8
2017-11-01T01:59:17.712Z,4.8
2017-11-01T02:00:20.086Z,4.8
2017-11-01T02:01:22.820Z,4.8
2017-11-01T02:02:25.200Z,4.7
2017-11-01T02:03:27.556Z,4.8
2017-11-01T02:04:29.953Z,4.8
2017-11-01T02:05:32.319Z,4.8
2017-11-01T02:06:34.681Z,4.8
2017-11-01T02:07:37.061Z,4.8
2017-11-01T02:08:39.443Z,4.8
2017-11-01T02:09:41.812Z,4.7
2017-11-01T02:10:44.204Z,4.8
2017-11-01T02:11:46.582Z,4.8
2017-11-01T02:12:49.307Z,4.8
2017-11-01T02:13:51.691Z,4.7
2017-11-01T02:14:54.062Z,4.8
2017-11-01T02:15:56.431Z,4.8
2017-11-01T02:16:58.798Z,4.8
2017-11-01T02:18:01.535Z,4.7
2017-11-01T02:19:03.904Z,4.8
2017-11-01T02:20:06.286Z,4.8
2017-11-01T02:21:08.679Z,4.8
2017-11-01T02:22:11.046Z,4.7
2017-11-01T02:23:13.412Z,4.8
2017-11-01T02:24:15.805Z,4.8
2017-11-01T02:25:18.193Z,4.8
2017-11-01T02:26:20.926Z,4.8
2017-11-01T02:27:23.308Z,4.8
2017-11-01T02:28:26.031Z,4.7
2017-11-01T02:29:28.391Z,4.7
2017-11-01T02:30:30.778Z,4.8
2017-11-01T02:31:33.514Z,4.7
2017-11-01T02:32:35.880Z,4.7
2017-11-01T02:33:38.256Z,4.7
2017-11-01T02:34:40.640Z,4.7
2017-11-01T02:35:43.005Z,4.8
2017-11-01T02:36:45.385Z,4.8
2017-11-01T02:37:47.784Z,4.8
2017-11-01T02:38:50.155Z,4.8
2017-11-01T02:39:52.538Z,4.7
2017-11-01T02:40:54.900Z,4.8
2017-11-01T02:41:57.283Z,4.7
2017-11-01T02:42:59.676Z,4.7
2017-11-01T02:44:02.381Z,4.7
2017-11-01T02:45:04.760Z,4.7
2017-11-01T02:46:07.492Z,4.8
2017-11-01T02:47:09.863Z,4.7
2017-11-01T02:48:12.585Z,4.7
2017-11-01T02:49:15.319Z,4.7
2017-11-01T02:50:17.699Z,4.7
2017-11-01T02:51:20.420Z,4.7
2017-11-01T02:52:22.815Z,4.7
2017-11-01T02:53:25.167Z,4.7
2017-11-01T02:54:27.554Z,4.7
2017-11-01T02:55:29.933Z,4.8
2017-11-01T02:56:32.317Z,4.7
2017-11-01T02:57:34.728Z,4.7
2017-11-01T02:58:37.459Z,4.7
2017-11-01T02:59:39.833Z,4.7
2017-11-01T03:00:42.229Z,4.7
2017-11-01T03:01:44.619Z,4.7
2017-11-01T03:02:46.982Z,4.7
2017-11-01T03:03:49.367Z,4.7
2017-11-01T03:04:51.751Z,4.7
2017-11-01T03:05:54.123Z,4.7
2017-11-01T03:06:56.573Z,4.7
2017-11-01T03:07:58.937Z,4.7
2017-11-01T03:09:01.311Z,4.8
2017-11-01T03:10:03.685Z,4.7
2017-11-01T03:11:06.051Z,4.7
2017-11-01T03:12:08.423Z,4.7
2017-11-01T03:13:10.799Z,4.8
2017-11-01T03:14:13.189Z,4.7
2017-11-01T03:15:15.558Z,4.7
2017-11-01T03:16:17.926Z,4.7
2017-11-01T03:17:20.314Z,4.7
2017-11-01T03:18:22.691Z,4.7
2017-11-01T03:19:25.413Z,4.7
2017-11-01T03:20:27.792Z,4.7
2017-11-01T03:21:30.176Z,4.7
2017-11-01T03:22:32.909Z,4.7
2017-11-01T03:23:35.300Z,4.7
2017-11-01T03:24:37.676Z,4.7
2017-11-01T03:25:40.067Z,4.7
2017-11-01T03:26:42.451Z,4.7
2017-11-01T03:27:44.833Z,4.7
2017-11-01T03:28:47.205Z,4.7
2017-11-01T03:29:49.578Z,4.7
2017-11-01T03:30:51.951Z,4.7
2017-11-01T03:31:54.332Z,4.7
2017-11-01T03:32:56.715Z,4.7
2017-11-01T03:33:59.086Z,4.7
2017-11-01T03:35:01.481Z,4.7
2017-11-01T03:36:03.866Z,4.7
2017-11-01T03:37:06.257Z,4.7
2017-11-01T03:38:08.971Z,4.7
2017-11-01T03:39:11.344Z,4.7
2017-11-01T03:40:13.710Z,4.7
2017-11-01T03:41:16.095Z,4.7
2017-11-01T03:42:18.475Z,4.7
2017-11-01T03:43:20.849Z,4.7
2017-11-01T03:44:23.247Z,4.7
2017-11-01T03:45:25.626Z,4.7
2017-11-01T03:46:28.019Z,4.7
2017-11-01T03:47:30.378Z,4.7
2017-11-01T03:48:32.754Z,4.7
2017-11-01T03:49:35.156Z,4.7
2017-11-01T03:50:37.521Z,4.7
2017-11-01T03:51:39.905Z,4.7
2017-11-01T03:52:42.631Z,4.7
2017-11-01T03:53:45.367Z,4.7
2017-11-01T03:54:47.746Z,4.7
2017-11-01T03:55:50.129Z,4.7
2017-11-01T03:56:52.867Z,4.7
2017-11-01T03:57:55.257Z,4.7
2017-11-01T03:58:57.626Z,4.7
2017-11-01T04:00:00.352Z,4.7
2017-11-01T04:01:02.741Z,4.7
2017-11-01T04:02:05.106Z,4.7
2017-11-01T04:03:07.482Z,4.7
2017-11-01T04:04:09.864Z,4.7
2017-11-01T04:05:12.246Z,4.7
2017-11-01T04:06:14.637Z,4.7
2017-11-01T04:07:17.030Z,4.7
2017-11-01T04:08:19.407Z,4.7
2017-11-01T04:09:21.787Z,4.7
2017-11-01T04:10:24.190Z,4.7
2017-11-01T04:11:26.556Z,4.7
2017-11-01T04:12:29.292Z,4.8
2017-11-01T04:13:31.682Z,4.7
2017-11-01T04:14:34.050Z,4.7
2017-11-01T04:15:36.771Z,4.7
2017-11-01T04:16:39.155Z,4.7
2017-11-01T04:17:41.522Z,4.7
2017-11-01T04:18:43.895Z,4.7
2017-11-01T04:19:46.269Z,4.7
2017-11-01T04:20:48.652Z,4.7
2017-11-01T04:21:51.052Z,4.8
2017-11-01T04:22:53.445Z,4.7
2017-11-01T04:23:55.807Z,4.8
2017-11-01T04:24:58.190Z,4.8
2017-11-01T04:26:00.923Z,4.7
2017-11-01T04:27:03.293Z,4.7
2017-11-01T04:28:05.667Z,4.7
2017-11-01T04:29:08.036Z,4.7
2017-11-01T04:30:10.416Z,4.8
2017-11-01T04:31:12.784Z,4.7
2017-11-01T04:32:15.178Z,4.7
2017-11-01T04:33:17.545Z,4.7
2017-11-01T04:34:20.269Z,4.7
2017-11-01T04:35:22.656Z,4.7
2017-11-01T04:36:25.021Z,4.7
2017-11-01T04:37:27.405Z,4.7
2017-11-01T04:38:30.129Z,4.7
2017-11-01T04:39:32.501Z,4.7
2017-11-01T04:40:35.221Z,4.8
2017-11-01T04:41:37.611Z,4.8
2017-11-01T04:42:39.975Z,4.7
2017-11-01T04:43:42.347Z,4.8
2017-11-01T04:44:44.735Z,4.8
2017-11-01T04:45:47.104Z,4.8
2017-11-01T04:46:49.842Z,4.8
2017-11-01T04:47:52.230Z,4.8
2017-11-01T04:48:54.967Z,4.8
2017-11-01T04:49:57.359Z,4.8
2017-11-01T04:50:59.739Z,4.8
2017-11-01T04:52:02.109Z,4.8
2017-11-01T04:53:04.488Z,4.8
2017-11-01T04:54:06.865Z,4.8
2017-11-01T04:55:09.264Z,4.8
2017-11-01T04:56:11.641Z,4.8
2017-11-01T04:57:14.017Z,4.8
2017-11-01T04:58:16.390Z,4.8
2017-11-01T04:59:19.488Z,4.8
2017-11-01T05:00:22.218Z,4.9
2017-11-01T05:01:24.614Z,4.8
2017-11-01T05:02:26.997Z,4.8
2017-11-01T05:03:29.360Z,4.8
2017-11-01T05:04:31.739Z,4.8
2017-11-01T05:05:34.125Z,4.8
2017-11-01T05:06:36.504Z,4.8
2017-11-01T05:07:38.892Z,4.8
2017-11-01T05:08:41.251Z,4.8
2017-11-01T05:09:43.998Z,4.8
2017-11-01T05:10:46.375Z,4.8
2017-11-01T05:11:48.749Z,4.8
2017-11-01T05:12:51.128Z,4.8
2017-11-01T05:13:53.520Z,4.9
2017-11-01T05:14:56.237Z,4.9
2017-11-01T05:15:58.597Z,4.8
2017-11-01T05:17:00.985Z,4.8
2017-11-01T05:18:03.361Z,4.8
2017-11-01T05:19:05.739Z,4.8
2017-11-01T05:20:08.122Z,4.8
2017-11-01T05:21:10.491Z,4.8
2017-11-01T05:22:13.224Z,4.8
2017-11-01T05:23:15.973Z,4.9
2017-11-01T05:24:18.344Z,4.8
2017-11-01T05:25:20.715Z,4.8
2017-11-01T05:26:23.083Z,4.8
2017-11-01T05:27:25.474Z,4.9
2017-11-01T05:28:27.846Z,4.8
2017-11-01T05:29:30.225Z,4.9
2017-11-01T05:30:32.949Z,4.9
2017-11-01T05:31:35.326Z,4.8
2017-11-01T05:32:37.706Z,4.9
2017-11-01T05:33:40.083Z,4.9
2017-11-01T05:34:42.469Z,4.9
2017-11-01T05:35:44.849Z,4.8
2017-11-01T05:36:47.234Z,4.8
2017-11-01T05:37:49.650Z,4.9
2017-11-01T05:38:52.402Z,4.8
2017-11-01T05:39:54.782Z,4.9
2017-11-01T05:40:57.510Z,4.9
2017-11-01T05:41:59.900Z,4.9
2017-11-01T05:43:02.270Z,4.9
2017-11-01T05:44:05.045Z,4.9
2017-11-01T05:45:07.439Z,4.9
2017-11-01T05:46:09.828Z,4.8
2017-11-01T05:47:12.183Z,4.9
2017-11-01T05:48:14.571Z,4.9
2017-11-01T05:49:16.956Z,4.9
2017-11-01T05:50:19.324Z,4.8
2017-11-01T05:51:21.699Z,4.9
2017-11-01T05:52:24.066Z,4.9
2017-11-01T05:53:26.437Z,4.8
2017-11-01T05:54:28.818Z,4.9
2017-11-01T05:55:31.192Z,4.9
2017-11-01T05:56:33.562Z,4.9
2017-11-01T05:57:35.951Z,4.9
2017-11-01T05:58:38.347Z,4.9
2017-11-01T05:59:40.720Z,4.9
2017-11-01T06:00:43.106Z,4.9
2017-11-01T06:01:45.483Z,4.9
2017-11-01T06:02:47.863Z,4.8
2017-11-01T06:03:50.251Z,4.9
2017-11-01T06:04:52.973Z,5
2017-11-01T06:05:55.352Z,4.9
2017-11-01T06:06:58.089Z,4.9
2017-11-01T06:08:00.450Z,4.8
2017-11-01T06:09:02.835Z,4.9
2017-11-01T06:10:05.201Z,4.9
2017-11-01T06:11:07.937Z,4.9
2017-11-01T06:12:10.299Z,4.9
2017-11-01T06:13:12.704Z,4.9
2017-11-01T06:14:15.073Z,4.9
2017-11-01T06:15:17.792Z,4.9
2017-11-01T06:16:20.171Z,4.9
2017-11-01T06:17:22.551Z,4.9
2017-11-01T06:18:25.300Z,4.9
2017-11-01T06:19:27.684Z,4.9
2017-11-01T06:20:30.056Z,5
2017-11-01T06:21:32.428Z,4.9
2017-11-01T06:22:34.876Z,4.9
2017-11-01T06:23:37.611Z,4.9
2017-11-01T06:24:39.988Z,4.9
2017-11-01T06:25:42.728Z,4.9
2017-11-01T06:26:45.113Z,4.9
2017-11-01T06:27:47.832Z,4.9
2017-11-01T06:28:50.555Z,4.9
2017-11-01T06:29:53.297Z,5
2017-11-01T06:30:55.676Z,4.9
2017-11-01T06:31:58.051Z,4.9
2017-11-01T06:33:00.434Z,4.9
2017-11-01T06:34:02.802Z,4.9
2017-11-01T06:35:05.179Z,4.9
2017-11-01T06:36:07.552Z,5.1
2017-11-01T06:37:09.919Z,5
2017-11-01T06:38:12.295Z,4.9
2017-11-01T06:39:14.660Z,4.9
2017-11-01T06:40:17.042Z,4.9
2017-11-01T06:41:19.426Z,5
2017-11-01T06:42:21.798Z,4.9
2017-11-01T06:43:24.173Z,5
2017-11-01T06:44:26.934Z,5
2017-11-01T06:45:29.298Z,4.9
2017-11-01T06:46:31.683Z,5
2017-11-01T06:47:34.055Z,5
2017-11-01T06:48:36.441Z,4.9
2017-11-01T06:49:38.821Z,4.9
2017-11-01T06:50:41.198Z,5
2017-11-01T06:51:43.577Z,5
2017-11-01T06:52:45.956Z,4.9
2017-11-01T06:53:48.331Z,5
2017-11-01T06:54:50.708Z,5
2017-11-01T06:55:53.076Z,4.9
2017-11-01T06:56:55.831Z,5
2017-11-01T06:57:58.206Z,5
2017-11-01T06:59:00.968Z,5
2017-11-01T07:00:03.336Z,5
2017-11-01T07:01:06.077Z,4.9
2017-11-01T07:02:08.432Z,4.9
2017-11-01T07:03:10.807Z,5
2017-11-01T07:04:13.178Z,5
2017-11-01T07:05:15.932Z,5
2017-11-01T07:06:18.309Z,4.9
2017-11-01T07:07:20.681Z,5
2017-11-01T07:08:23.053Z,5
2017-11-01T07:09:25.423Z,5
2017-11-01T07:10:27.813Z,5
2017-11-01T07:11:30.191Z,5
2017-11-01T07:12:32.578Z,5
2017-11-01T07:13:34.960Z,5.1
2017-11-01T07:14:37.330Z,5
2017-11-01T07:15:39.718Z,4.9
2017-11-01T07:16:42.108Z,5
2017-11-01T07:17:44.478Z,5.1
2017-11-01T07:18:46.865Z,5
2017-11-01T07:19:49.226Z,5
2017-11-01T07:20:52.000Z,5
2017-11-01T07:21:54.380Z,5
2017-11-01T07:22:57.104Z,5
2017-11-01T07:23:59.501Z,5
2017-11-01T07:25:01.877Z,5
2017-11-01T07:26:04.264Z,5.1
2017-11-01T07:27:06.639Z,5
2017-11-01T07:28:09.018Z,5.1
2017-11-01T07:29:11.386Z,5
2017-11-01T07:30:13.768Z,5
2017-11-01T07:31:16.505Z,5.1
2017-11-01T07:32:18.871Z,5.1
2017-11-01T07:33:21.258Z,5.1
2017-11-01T07:34:23.627Z,5.1
2017-11-01T07:35:25.997Z,5
2017-11-01T07:36:28.377Z,5
2017-11-01T07:37:31.466Z,5.1
2017-11-01T07:38:34.172Z,5.1
2017-11-01T07:39:36.558Z,5
2017-11-01T07:40:38.941Z,5.1
2017-11-01T07:41:41.674Z,5.1
2017-11-01T07:42:44.049Z,5.1
2017-11-01T07:43:46.433Z,5.1
2017-11-01T07:44:48.814Z,5.1
2017-11-01T07:45:51.178Z,5.1
2017-11-01T07:46:53.572Z,5.1
2017-11-01T07:47:55.951Z,5.1
2017-11-01T07:48:58.316Z,5.1
2017-11-01T07:50:01.049Z,5.1
2017-11-01T07:51:03.424Z,5.1
2017-11-01T07:52:05.795Z,5
2017-11-01T07:53:08.192Z,5.2
2017-11-01T07:54:10.561Z,5.1
2017-11-01T07:55:12.930Z,5.1
2017-11-01T07:56:15.311Z,5.2
2017-11-01T07:57:17.702Z,5.1
2017-11-01T07:58:20.073Z,5.1
2017-11-01T07:59:22.795Z,5.1
2017-11-01T08:00:25.169Z,5.2
2017-11-01T08:01:27.538Z,5.1
2017-11-01T08:02:29.930Z,5.1
2017-11-01T08:03:32.305Z,5.2
2017-11-01T08:04:34.679Z,5.2
2017-11-01T08:05:37.059Z,5.2
2017-11-01T08:06:39.434Z,5.1
2017-11-01T08:07:41.822Z,5.1
2017-11-01T08:08:44.572Z,5
2017-11-01T08:09:46.945Z,5.1
2017-11-01T08:10:49.691Z,5.1
2017-11-01T08:11:52.071Z,5.1
2017-11-01T08:12:54.447Z,5.1
2017-11-01T08:13:56.828Z,5.1
2017-11-01T08:14:59.213Z,5.1
2017-11-01T08:16:02.463Z,5.1
2017-11-01T08:17:04.876Z,5.1
2017-11-01T08:18:07.270Z,5.1
2017-11-01T08:19:09.669Z,5.1
2017-11-01T08:20:12.080Z,5.1
2017-11-01T08:21:14.507Z,5.1
2017-11-01T08:22:16.902Z,5.1
2017-11-01T08:23:19.640Z,5.1
2017-11-01T08:24:22.284Z,5.2
2017-11-01T08:25:24.683Z,5.1
2017-11-01T08:26:27.153Z,5.1
2017-11-01T08:27:29.684Z,5.1
2017-11-01T08:28:32.542Z,5.1
2017-11-01T08:29:35.910Z,5.1
2017-11-01T08:30:38.368Z,5.1
2017-11-01T08:31:40.781Z,5.1
2017-11-01T08:32:43.310Z,5.2
2017-11-01T08:33:46.297Z,5.2
2017-11-01T08:34:48.713Z,5.1
2017-11-01T08:35:51.487Z,5.2
2017-11-01T08:36:53.891Z,5.1
2017-11-01T08:37:56.895Z,5.1
2017-11-01T08:38:59.630Z,5.2
2017-11-01T08:40:02.028Z,5.2
2017-11-01T08:41:04.407Z,5.2
2017-11-01T08:42:06.808Z,5.2
2017-11-01T08:43:09.253Z,5.2
2017-11-01T08:44:11.836Z,5.2
2017-11-01T08:45:14.291Z,5.1
2017-11-01T08:46:17.373Z,5.2
2017-11-01T08:47:19.761Z,5.1
2017-11-01T08:48:22.213Z,5.2
2017-11-01T08:49:24.930Z,5.2
2017-11-01T08:50:28.145Z,5.2
2017-11-01T08:51:30.525Z,5.2
2017-11-01T08:52:32.893Z,5.1
2017-11-01T08:53:35.324Z,5.2
2017-11-01T08:54:37.757Z,5.2
2017-11-01T08:55:40.138Z,5.2
2017-11-01T08:56:42.529Z,5.2
2017-11-01T08:57:44.900Z,5.2
2017-11-01T08:58:47.631Z,5.1
2017-11-01T08:59:50.098Z,5.2
2017-11-01T09:00:52.498Z,5.2
2017-11-01T09:01:54.918Z,5.2
2017-11-01T09:02:57.298Z,5.2
2017-11-01T09:03:59.666Z,5.1
2017-11-01T09:05:02.062Z,5.2
2017-11-01T09:06:04.474Z,5.1
2017-11-01T09:07:06.857Z,5.1
2017-11-01T09:08:09.251Z,5.2
2017-11-01T09:09:12.132Z,5.3
2017-11-01T09:10:14.909Z,5.1
2017-11-01T09:11:17.295Z,5.2
2017-11-01T09:12:19.668Z,5.2
2017-11-01T09:13:22.049Z,5.2
2017-11-01T09:14:24.441Z,5.2
2017-11-01T09:15:27.157Z,5.3
2017-11-01T09:16:29.548Z,5.1
2017-11-01T09:17:31.939Z,5.1
2017-11-01T09:18:34.321Z,5.2
2017-11-01T09:19:36.710Z,5.2
2017-11-01T09:20:39.084Z,5.1
2017-11-01T09:21:41.473Z,5.2
2017-11-01T09:22:43.857Z,5.1
2017-11-01T09:23:46.232Z,5.2
2017-11-01T09:24:48.616Z,5.2
2017-11-01T09:25:50.984Z,5.2
2017-11-01T09:26:53.354Z,5.2
2017-11-01T09:27:55.743Z,5.2
2017-11-01T09:28:58.119Z,5.2
2017-11-01T09:30:00.494Z,5.2
2017-11-01T09:31:02.878Z,5.2
2017-11-01T09:32:05.260Z,5.1
2017-11-01T09:33:07.640Z,5.2
2017-11-01T09:34:10.015Z,5.2
2017-11-01T09:35:12.736Z,5.2
2017-11-01T09:36:15.126Z,5.2
2017-11-01T09:37:17.497Z,5.2
2017-11-01T09:38:19.884Z,5.2
2017-11-01T09:39:22.262Z,5.2
2017-11-01T09:40:24.656Z,5.2
2017-11-01T09:41:27.022Z,5.3
2017-11-01T09:42:29.401Z,5.2
2017-11-01T09:43:31.843Z,5.2
2017-11-01T09:44:34.228Z,5.2
2017-11-01T09:45:36.618Z,5.2
2017-11-01T09:46:38.996Z,5.1
2017-11-01T09:47:41.372Z,5.2
2017-11-01T09:48:43.769Z,5.1
2017-11-01T09:49:46.140Z,5.2
2017-11-01T09:50:48.521Z,5.2
2017-11-01T09:51:50.895Z,5.2
2017-11-01T09:52:53.265Z,5.2
2017-11-01T09:53:55.657Z,5.2
2017-11-01T09:54:58.037Z,5.2
2017-11-01T09:56:00.413Z,5.2
2017-11-01T09:57:02.815Z,5.1
2017-11-01T09:58:05.183Z,5.2
2017-11-01T09:59:07.609Z,5.2
2017-11-01T10:00:09.998Z,5.2
2017-11-01T10:01:12.367Z,5.2
2017-11-01T10:02:14.749Z,5.2
2017-11-01T10:03:17.142Z,5.2
2017-11-01T10:04:19.519Z,5.3
2017-11-01T10:05:21.894Z,5.2
2017-11-01T10:06:24.284Z,5.2
2017-11-01T10:07:26.667Z,5.3
2017-11-01T10:08:29.059Z,5.2
2017-11-01T10:09:31.779Z,5.2
2017-11-01T10:10:34.161Z,5.2
2017-11-01T10:11:36.550Z,5.2
2017-11-01T10:12:39.282Z,5.2
2017-11-01T10:13:41.647Z,5.1
2017-11-01T10:14:44.033Z,5.2
2017-11-01T10:15:46.418Z,5.2
2017-11-01T10:16:48.786Z,5.2
2017-11-01T10:17:51.163Z,5.2
2017-11-01T10:18:53.576Z,5.2
2017-11-01T10:19:55.962Z,5.3
2017-11-01T10:20:58.343Z,5.2
2017-11-01T10:22:00.714Z,5.2
2017-11-01T10:23:03.437Z,5.3
2017-11-01T10:24:05.814Z,5.2
2017-11-01T10:25:08.197Z,5.2
2017-11-01T10:26:10.576Z,5.2
2017-11-01T10:27:12.964Z,5.3
2017-11-01T10:28:15.699Z,5.3
2017-11-01T10:29:18.075Z,5.3
2017-11-01T10:30:21.165Z,5.3
2017-11-01T10:31:23.540Z,5.2
2017-11-01T10:32:26.263Z,5.3
2017-11-01T10:33:28.640Z,5.2
2017-11-01T10:34:31.008Z,5.2
2017-11-01T10:35:33.825Z,5.2
2017-11-01T10:36:36.224Z,5.2
2017-11-01T10:37:38.950Z,5.2
2017-11-01T10:38:41.327Z,5.3
2017-11-01T10:39:43.711Z,5.3
2017-11-01T10:40:46.094Z,5.2
2017-11-01T10:41:48.455Z,5.2
2017-11-01T10:42:50.834Z,5.2
2017-11-01T10:43:53.214Z,5.2
2017-11-01T10:44:55.591Z,5.2
2017-11-01T10:45:57.962Z,5.2
2017-11-01T10:47:00.340Z,5.3
2017-11-01T10:48:03.074Z,5.3
2017-11-01T10:49:05.453Z,5.2
2017-11-01T10:50:07.837Z,5.3
2017-11-01T10:51:10.217Z,5.2
2017-11-01T10:52:12.953Z,5.3
2017-11-01T10:53:15.328Z,5.2
2017-11-01T10:54:17.704Z,5.3
2017-11-01T10:55:20.081Z,5.2
2017-11-01T10:56:22.466Z,5.3
2017-11-01T10:57:24.844Z,5.2
2017-11-01T10:58:27.226Z,5.2
2017-11-01T10:59:29.979Z,5.2
2017-11-01T11:00:32.348Z,5.2
2017-11-01T11:01:34.730Z,5.3
2017-11-01T11:02:37.109Z,5.2
2017-11-01T11:03:39.489Z,5.3
2017-11-01T11:04:41.868Z,5.3
2017-11-01T11:05:49.363Z,5.3
2017-11-01T11:06:59.285Z,5.3
2017-11-01T11:08:09.012Z,5.2
2017-11-01T11:09:24.467Z,5.3
2017-11-01T11:10:34.280Z,5.2
2017-11-01T11:11:46.621Z,5.2
2017-11-01T11:13:00.762Z,5.3
2017-11-01T11:14:04.739Z,5.3
2017-11-01T11:15:07.103Z,5.2
2017-11-01T11:16:09.497Z,5.2
2017-11-01T11:17:11.864Z,5.2
2017-11-01T11:18:14.589Z,5.3
2017-11-01T11:19:16.966Z,5.2
2017-11-01T11:20:19.347Z,5.3
2017-11-01T11:21:21.723Z,5.2
2017-11-01T11:22:24.104Z,5.2
2017-11-01T11:23:26.483Z,5.3
2017-11-01T11:24:28.852Z,5.2
2017-11-01T11:25:31.575Z,5.2
2017-11-01T11:26:33.961Z,5.2
2017-11-01T11:27:36.348Z,5.3
2017-11-01T11:28:38.717Z,5.2
2017-11-01T11:29:41.101Z,5.2
2017-11-01T11:30:43.494Z,5.3
2017-11-01T11:31:46.231Z,5.2
2017-11-01T11:32:48.964Z,5.2
2017-11-01T11:33:51.679Z,5.3
2017-11-01T11:34:54.060Z,5.2
2017-11-01T11:35:56.435Z,5.2
2017-11-01T11:36:58.816Z,5.2
2017-11-01T11:38:01.184Z,5.3
2017-11-01T11:39:03.565Z,5.3
2017-11-01T11:40:06.304Z,5.2
2017-11-01T11:41:09.021Z,5.3
2017-11-01T11:42:11.394Z,5.2
2017-11-01T11:43:13.788Z,5.3
2017-11-01T11:44:16.509Z,5.2
2017-11-01T11:45:19.249Z,5.3
2017-11-01T11:46:21.654Z,5.2
2017-11-01T11:47:24.017Z,5.3
2017-11-01T11:48:26.417Z,5.3
2017-11-01T11:49:28.799Z,5.2
2017-11-01T11:50:31.531Z,5.2
2017-11-01T11:51:33.899Z,5.3
2017-11-01T11:52:36.278Z,5.3
2017-11-01T11:53:38.645Z,5.3
2017-11-01T11:54:41.043Z,5.3
2017-11-01T11:55:43.433Z,5.3
2017-11-01T11:56:45.798Z,5.2
2017-11-01T11:57:48.549Z,5.3
2017-11-01T11:58:50.938Z,5.3
2017-11-01T11:59:53.319Z,5.3
2017-11-01T12:00:55.690Z,5.3
2017-11-01T12:01:58.072Z,5.3
2017-11-01T12:03:00.446Z,5.3
2017-11-01T12:04:02.843Z,5.3
2017-11-01T12:05:05.223Z,5.3
2017-11-01T12:06:07.605Z,5.3
2017-11-01T12:07:09.984Z,5.3
2017-11-01T12:08:12.362Z,5.3
2017-11-01T12:09:14.741Z,5.3
2017-11-01T12:10:17.120Z,5.3
2017-11-01T12:11:19.504Z,5.3
2017-11-01T12:12:21.890Z,5.3
2017-11-01T12:13:24.274Z,5.3
2017-11-01T12:14:26.666Z,5.3
2017-11-01T12:15:29.051Z,5.4
2017-11-01T12:16:31.426Z,5.3
2017-11-01T12:17:33.817Z,5.3
2017-11-01T12:18:36.535Z,5.4
2017-11-01T12:19:38.923Z,5.3
2017-11-01T12:20:41.295Z,5.3
2017-11-01T12:21:43.666Z,5.3
2017-11-01T12:22:46.041Z,5.3
2017-11-01T12:23:48.425Z,5.3
2017-11-01T12:24:50.795Z,5.3
2017-11-01T12:25:53.176Z,5.3
2017-11-01T12:26:55.553Z,5.2
2017-11-01T12:27:57.933Z,5.3
2017-11-01T12:29:00.302Z,5.4
2017-11-01T12:30:02.692Z,5.4
2017-11-01T12:31:05.071Z,5.3
2017-11-01T12:32:07.450Z,5.2
2017-11-01T12:33:09.836Z,5.3
2017-11-01T12:34:12.216Z,5.3
2017-11-01T12:35:14.964Z,5.3
2017-11-01T12:36:17.356Z,5.3
2017-11-01T12:37:19.718Z,5.3
2017-11-01T12:38:22.113Z,5.2
2017-11-01T12:39:24.846Z,5.3
2017-11-01T12:40:27.225Z,5.3
2017-11-01T12:41:29.610Z,5.3
2017-11-01T12:42:31.985Z,5.3
2017-11-01T12:43:34.720Z,5.3
2017-11-01T12:44:37.106Z,5.3
2017-11-01T12:45:39.478Z,5.3
2017-11-01T12:46:41.857Z,5.3
2017-11-01T12:47:44.235Z,5.3
2017-11-01T12:48:46.611Z,5.3
2017-11-01T12:49:49.345Z,5.2
2017-11-01T12:50:51.720Z,5.3
2017-11-01T12:51:54.106Z,5.3
2017-11-01T12:52:56.486Z,5.3
2017-11-01T12:53:58.859Z,5.3
2017-11-01T12:55:01.238Z,5.3
2017-11-01T12:56:03.619Z,5.3
2017-11-01T12:57:05.985Z,5.3
2017-11-01T12:58:08.370Z,5.3
2017-11-01T12:59:10.750Z,5.3
2017-11-01T13:00:13.128Z,5.3
2017-11-01T13:01:15.506Z,5.3
2017-11-01T13:02:17.894Z,5.3
2017-11-01T13:03:20.268Z,5.3
2017-11-01T13:04:22.656Z,5.3
2017-11-01T13:05:25.034Z,5.3
2017-11-01T13:06:27.407Z,5.2
2017-11-01T13:07:29.777Z,5.3
2017-11-01T13:08:32.162Z,5.3
2017-11-01T13:09:34.543Z,5.3
2017-11-01T13:10:36.934Z,5.3
2017-11-01T13:11:39.310Z,5.3
2017-11-01T13:12:41.695Z,5.2
2017-11-01T13:13:44.061Z,5.3
2017-11-01T13:14:46.437Z,5.3
2017-11-01T13:15:48.821Z,5.3
2017-11-01T13:16:51.546Z,5.3
2017-11-01T13:17:53.930Z,5.3
2017-11-01T13:18:56.309Z,5.3
2017-11-01T13:19:59.165Z,5.3
2017-11-01T13:21:01.655Z,5.2
2017-11-01T13:22:04.043Z,5.3
2017-11-01T13:23:06.417Z,5.3
2017-11-01T13:24:08.795Z,5.3
2017-11-01T13:25:11.185Z,5.3
2017-11-01T13:26:14.296Z,5.3
2017-11-01T13:27:16.698Z,5.3
2017-11-01T13:28:19.064Z,5.2
2017-11-01T13:29:21.434Z,5.3
2017-11-01T13:30:23.816Z,5.2
2017-11-01T13:31:26.545Z,5.3
2017-11-01T13:32:28.925Z,5.3
2017-11-01T13:33:31.301Z,5.3
2017-11-01T13:34:33.674Z,5.2
2017-11-01T13:35:36.394Z,5.2
2017-11-01T13:36:38.785Z,5.3
2017-11-01T13:37:41.166Z,5.3
2017-11-01T13:38:43.539Z,5.2
2017-11-01T13:39:45.911Z,5.3
2017-11-01T13:40:48.295Z,5.3
2017-11-01T13:41:50.665Z,5.3
2017-11-01T13:42:53.046Z,5.2
2017-11-01T13:43:55.433Z,5.3
2017-11-01T13:44:57.964Z,5.3
2017-11-01T13:46:00.353Z,5.2
2017-11-01T13:47:02.990Z,5.2
2017-11-01T13:48:05.774Z,5.2
2017-11-01T13:49:08.152Z,5.4
2017-11-01T13:50:10.540Z,5.3
2017-11-01T13:51:12.944Z,5.3
2017-11-01T13:52:15.304Z,5.3
2017-11-01T13:53:17.678Z,5.3
2017-11-01T13:54:20.062Z,5.3
2017-11-01T13:55:22.438Z,5.3
2017-11-01T13:56:24.857Z,5.3
2017-11-01T13:57:27.322Z,5.2
2017-11-01T13:58:29.703Z,5.4
2017-11-01T13:59:32.089Z,5.3
2017-11-01T14:00:34.471Z,5.3
2017-11-01T14:01:36.844Z,5.3
2017-11-01T14:02:39.220Z,5.3
2017-11-01T14:03:41.593Z,5.3
2017-11-01T14:04:43.978Z,5.4
2017-11-01T14:05:46.353Z,5.3
2017-11-01T14:06:48.729Z,5.3
2017-11-01T14:07:51.106Z,5.3
2017-11-01T14:08:53.496Z,5.3
2017-11-01T14:09:55.857Z,5.3
2017-11-01T14:10:58.229Z,5.3
2017-11-01T14:12:00.614Z,5.2
2017-11-01T14:13:02.985Z,5.3
2017-11-01T14:14:05.361Z,5.3
2017-11-01T14:15:07.742Z,5.3
2017-11-01T14:16:10.121Z,5.3
2017-11-01T14:17:12.504Z,5.3
2017-11-01T14:18:14.885Z,5.4
2017-11-01T14:19:17.246Z,5.4
2017-11-01T14:20:19.633Z,5.3
2017-11-01T14:21:22.007Z,5.4
2017-11-01T14:22:24.383Z,5.3
2017-11-01T14:23:26.767Z,5.3
2017-11-01T14:24:29.139Z,5.3
2017-11-01T14:25:31.521Z,5.3
2017-11-01T14:26:33.911Z,5.3
2017-11-01T14:27:36.281Z,5.3
2017-11-01T14:28:38.663Z,5.3